Time;durP1;ratioP1;P1;durP2;ratioP2;P2;SDS_P1;SDS_P2;PMS_P1;PMS_P2;Temp;Humidity;BMP_temperature;BMP_pressure;BME280_temperature;BME280_humidity;BME280_pressure;Samples;Min_cycle;Max_cycle;Signal;HPM_P1;HPM_P2
2023/04/04 00:01:36;;;;;;;1.10;0.50;;;6.60;55.20;;;;;;5050783;28;20037;-68
2023/04/04 00:04:02;;;;;;;1.88;1.20;;;6.70;55.30;;;;;;4999559;28;20037;-69
2023/04/04 00:06:27;;;;;;;4.18;1.13;;;6.70;55.20;;;;;;5019856;28;20013;-69
2023/04/04 00:08:53;;;;;;;0.63;0.45;;;6.70;55.20;;;;;;5040630;28;20064;-69
2023/04/04 00:11:20;;;;;;;0.82;0.73;;;6.70;55.20;;;;;;5033360;28;20025;-69
2023/04/04 00:13:46;;;;;;;3.17;1.50;;;6.70;55.20;;;;;;5020165;28;20057;-69
2023/04/04 00:16:12;;;;;;;1.65;0.85;;;6.70;55.10;;;;;;5046261;28;20427;-68
2023/04/04 00:18:39;;;;;;;0.40;0.40;;;6.60;55.10;;;;;;5049914;28;20476;-66
2023/04/04 00:21:05;;;;;;;2.17;0.90;;;6.60;55.10;;;;;;5029295;28;20420;-65
2023/04/04 00:23:31;;;;;;;0.70;0.70;;;6.60;55.70;;;;;;5048252;28;20037;-69
2023/04/04 00:25:56;;;;;;;1.77;0.90;;;6.60;55.00;;;;;;5031391;28;20029;-68
2023/04/04 00:28:22;;;;;;;1.15;0.80;;;6.60;55.10;;;;;;5042330;28;20108;-69
2023/04/04 00:30:48;;;;;;;0.60;0.60;;;6.60;55.30;;;;;;5023105;28;20051;-68
2023/04/04 00:33:14;;;;;;;1.45;0.70;;;6.50;55.30;;;;;;5036647;28;20104;-69
2023/04/04 00:35:40;;;;;;;1.23;1.08;;;6.50;55.30;;;;;;5050438;28;20109;-69
2023/04/04 00:38:06;;;;;;;1.08;0.95;;;6.50;55.40;;;;;;5039838;28;20097;-68
2023/04/04 00:40:39;;;;;;;1.83;0.80;;;6.40;55.50;;;;;;5043217;28;20032;-69
2023/04/04 00:43:06;;;;;;;1.30;0.85;;;6.40;55.60;;;;;;5037559;28;20423;-66
2023/04/04 00:45:33;;;;;;;1.13;0.70;;;6.40;55.70;;;;;;5043623;28;20488;-66
2023/04/04 00:48:02;;;;;;;0.50;0.50;;;6.40;55.80;;;;;;5043670;28;20179;-67
2023/04/04 00:50:28;;;;;;;0.68;0.55;;;6.30;56.00;;;;;;5038416;28;20435;-66
2023/04/04 00:52:54;;;;;;;1.30;0.95;;;6.30;56.00;;;;;;5018966;28;20037;-67
2023/04/04 00:55:20;;;;;;;1.20;0.77;;;6.30;56.10;;;;;;5023784;28;20051;-66
2023/04/04 00:57:46;;;;;;;3.10;1.05;;;6.20;56.90;;;;;;5006136;28;20037;-68
2023/04/04 01:00:14;;;;;;;0.82;0.65;;;6.20;56.50;;;;;;5036115;28;20069;-69
2023/04/04 01:02:39;;;;;;;0.80;0.70;;;6.20;56.50;;;;;;5043188;28;20033;-66
2023/04/04 01:05:06;;;;;;;0.60;0.60;;;6.10;56.60;;;;;;5046511;28;20033;-67
2023/04/04 01:07:34;;;;;;;1.27;0.60;;;6.10;56.70;;;;;;5045316;28;20025;-66
2023/04/04 01:10:02;;;;;;;1.83;0.95;;;6.00;56.80;;;;;;5014178;28;20029;-66
2023/04/04 01:12:29;;;;;;;0.80;0.73;;;6.00;56.80;;;;;;5027042;28;20076;-66
2023/04/04 01:14:55;;;;;;;0.75;0.75;;;6.00;56.90;;;;;;5041584;28;20021;-68
2023/04/04 01:17:22;;;;;;;0.65;0.65;;;6.00;57.00;;;;;;5038373;28;20333;-68
2023/04/04 01:20:03;;;;;;;1.13;0.85;;;6.00;57.00;;;;;;5033817;28;20018;-69
2023/04/04 01:22:30;;;;;;;0.95;0.68;;;6.00;57.00;;;;;;5038780;28;20028;-68
2023/04/04 01:24:57;;;;;;;0.60;0.60;;;5.90;57.20;;;;;;5023670;28;20421;-69
2023/04/04 01:27:22;;;;;;;1.45;0.60;;;5.90;57.20;;;;;;5043282;28;20018;-69
2023/04/04 01:29:48;;;;;;;1.08;0.70;;;5.80;57.30;;;;;;5039077;28;20473;-68
2023/04/04 01:32:44;;;;;;;1.35;0.77;;;5.80;57.50;;;;;;5048856;28;20021;-69
2023/04/04 01:35:30;;;;;;;1.95;0.80;;;5.80;57.70;;;;;;5039763;28;20029;-68
2023/04/04 01:38:17;;;;;;;4.10;0.85;;;5.70;57.80;;;;;;5045043;28;20024;-69
2023/04/04 01:40:48;;;;;;;0.90;0.90;;;5.60;58.20;;;;;;5034022;28;20034;-68
2023/04/04 01:43:14;;;;;;;0.68;0.63;;;5.50;58.20;;;;;;5035173;28;20024;-70
2023/04/04 01:45:40;;;;;;;2.80;0.70;;;5.50;58.50;;;;;;5024014;28;20037;-68
2023/04/04 01:48:07;;;;;;;1.63;0.52;;;5.40;58.70;;;;;;5018830;28;20033;-66
2023/04/04 01:50:32;;;;;;;1.05;0.85;;;5.40;59.20;;;;;;5028701;28;20033;-66
2023/04/04 01:52:58;;;;;;;1.70;0.82;;;5.30;59.10;;;;;;5022501;28;20093;-69
2023/04/04 01:55:24;;;;;;;1.23;0.90;;;5.30;59.20;;;;;;5014263;28;20501;-69
2023/04/04 01:57:50;;;;;;;1.30;0.77;;;5.20;59.40;;;;;;5030159;28;20017;-68
2023/04/04 02:00:16;;;;;;;0.65;0.52;;;5.10;59.60;;;;;;5041817;28;20669;-68
2023/04/04 02:02:42;;;;;;;1.02;0.93;;;5.10;59.70;;;;;;5019424;28;20067;-68
2023/04/04 02:05:07;;;;;;;0.73;0.70;;;5.10;59.80;;;;;;5022912;28;20032;-69
2023/04/04 02:07:33;;;;;;;0.65;0.63;;;5.00;59.70;;;;;;5027782;28;20393;-69
2023/04/04 02:10:00;;;;;;;4.20;0.80;;;5.00;59.70;;;;;;5047389;28;20456;-70
2023/04/04 02:12:26;;;;;;;1.65;0.88;;;5.00;59.80;;;;;;5040859;28;20041;-69
2023/04/04 02:14:52;;;;;;;0.85;0.68;;;5.00;60.00;;;;;;5026278;28;20104;-69
2023/04/04 02:17:18;;;;;;;0.75;0.75;;;5.00;60.10;;;;;;5030193;28;20025;-69
2023/04/04 02:19:43;;;;;;;1.23;0.80;;;4.90;60.10;;;;;;5034617;28;20371;-67
2023/04/04 02:22:09;;;;;;;0.73;0.68;;;4.90;60.30;;;;;;5024472;28;20102;-65
2023/04/04 02:24:35;;;;;;;0.75;0.63;;;4.90;60.30;;;;;;5041508;28;20479;-66
2023/04/04 02:27:00;;;;;;;3.70;1.10;;;4.90;60.40;;;;;;5018907;28;20044;-68
2023/04/04 02:29:26;;;;;;;0.60;0.60;;;4.90;60.60;;;;;;5042764;28;20514;-69
2023/04/04 02:31:52;;;;;;;0.95;0.95;;;4.80;60.70;;;;;;5025430;28;20025;-65
2023/04/04 02:34:18;;;;;;;2.13;0.77;;;4.80;60.80;;;;;;5041634;28;20048;-66
2023/04/04 02:36:43;;;;;;;1.48;0.85;;;4.80;60.80;;;;;;5015790;28;20017;-67
2023/04/04 02:39:09;;;;;;;0.98;0.80;;;4.80;60.80;;;;;;5045499;28;20464;-66
2023/04/04 02:41:35;;;;;;;2.20;1.15;;;4.70;60.80;;;;;;5032878;28;20034;-67
2023/04/04 02:44:00;;;;;;;2.60;1.33;;;4.70;60.80;;;;;;5025762;28;20075;-66
2023/04/04 02:46:26;;;;;;;2.00;1.10;;;4.70;60.70;;;;;;5041620;28;20028;-66
2023/04/04 02:48:52;;;;;;;1.27;0.75;;;4.70;60.80;;;;;;5035899;28;20067;-68
2023/04/04 02:51:17;;;;;;;2.47;0.70;;;4.70;60.90;;;;;;5043381;28;20029;-66
2023/04/04 02:53:44;;;;;;;6.35;0.82;;;4.60;61.00;;;;;;5043300;28;20400;-65
2023/04/04 02:56:09;;;;;;;2.30;1.08;;;4.60;61.00;;;;;;5030320;28;20028;-67
2023/04/04 02:58:35;;;;;;;0.70;0.65;;;4.60;61.20;;;;;;5045896;28;20029;-67
2023/04/04 03:01:01;;;;;;;0.73;0.60;;;4.60;61.20;;;;;;5042888;28;20025;-66
2023/04/04 03:03:26;;;;;;;4.85;0.80;;;4.50;61.10;;;;;;5020290;28;20107;-66
2023/04/04 03:06:12;;;;;;;6.88;0.85;;;4.50;61.20;;;;;;5047329;28;20115;-69
2023/04/04 03:08:39;;;;;;;3.47;0.90;;;4.50;61.20;;;;;;5021379;28;20072;-69
2023/04/04 03:11:04;;;;;;;1.27;0.88;;;4.40;61.30;;;;;;5034628;28;20106;-70
2023/04/04 03:13:30;;;;;;;2.50;1.08;;;4.40;61.40;;;;;;5043512;28;20087;-66
2023/04/04 03:16:05;;;;;;;1.10;1.00;;;4.30;61.50;;;;;;5037438;28;20112;-67
2023/04/04 03:18:33;;;;;;;1.25;0.80;;;4.30;61.70;;;;;;5033512;28;20052;-69
2023/04/04 03:20:59;;;;;;;4.22;1.23;;;4.30;62.00;;;;;;5027354;28;20021;-68
2023/04/04 03:23:24;;;;;;;1.73;0.95;;;4.30;62.00;;;;;;5028087;28;20480;-69
2023/04/04 03:25:50;;;;;;;3.60;1.08;;;4.20;62.00;;;;;;5028630;28;20573;-66
2023/04/04 03:28:16;;;;;;;0.82;0.50;;;4.20;62.00;;;;;;5025705;28;20025;-66
2023/04/04 03:30:42;;;;;;;1.70;0.75;;;4.10;62.10;;;;;;5007447;28;20038;-66
2023/04/04 03:33:08;;;;;;;1.67;1.08;;;4.10;62.10;;;;;;5043267;28;20032;-69
2023/04/04 03:35:40;;;;;;;0.98;0.70;;;4.10;62.30;;;;;;5037703;28;20072;-66
2023/04/04 03:38:08;;;;;;;2.05;0.88;;;4.10;62.40;;;;;;5040410;28;20430;-66
2023/04/04 03:40:34;;;;;;;0.68;0.68;;;4.00;62.40;;;;;;5017960;28;20064;-67
2023/04/04 03:43:01;;;;;;;1.98;0.88;;;4.00;62.40;;;;;;5009525;28;20024;-65
2023/04/04 03:45:27;;;;;;;2.83;1.23;;;4.00;62.50;;;;;;5042909;28;20029;-66
2023/04/04 03:47:53;;;;;;;0.93;0.60;;;4.00;62.50;;;;;;5019484;28;20682;-65
2023/04/04 03:50:19;;;;;;;2.85;1.05;;;4.00;62.60;;;;;;5045862;28;20030;-69
2023/04/04 03:52:46;;;;;;;0.95;0.57;;;4.00;62.80;;;;;;5045807;28;20033;-69
2023/04/04 03:55:11;;;;;;;0.98;0.93;;;3.90;62.80;;;;;;5035851;28;20476;-66
2023/04/04 03:57:37;;;;;;;0.90;0.70;;;4.00;62.90;;;;;;5033439;28;20052;-67
2023/04/04 04:00:04;;;;;;;2.47;1.08;;;3.90;62.90;;;;;;5044483;28;20258;-66
2023/04/04 04:02:29;;;;;;;1.20;1.02;;;3.90;62.90;;;;;;5036183;28;20079;-66
2023/04/04 04:04:55;;;;;;;1.30;1.15;;;3.90;62.80;;;;;;5012257;28;20025;-66
2023/04/04 04:07:21;;;;;;;1.52;0.75;;;3.90;62.80;;;;;;5045570;28;20029;-70
2023/04/04 04:09:46;;;;;;;1.48;0.95;;;3.90;62.90;;;;;;5038633;28;20060;-66
2023/04/04 04:12:12;;;;;;;1.17;1.00;;;3.90;62.90;;;;;;5031478;28;20045;-69
2023/04/04 04:14:38;;;;;;;1.05;0.95;;;3.80;62.90;;;;;;5048231;28;20502;-66
2023/04/04 04:17:04;;;;;;;1.50;0.77;;;3.80;63.10;;;;;;5044281;28;20036;-66
2023/04/04 04:19:30;;;;;;;1.35;1.02;;;3.80;63.10;;;;;;5027668;28;20476;-66
2023/04/04 04:21:55;;;;;;;7.43;1.10;;;3.80;63.20;;;;;;5022977;28;20037;-67
2023/04/04 04:24:48;;;;;;;1.13;0.85;;;3.80;63.30;;;;;;5044889;28;20033;-66
2023/04/04 04:27:14;;;;;;;0.50;0.50;;;3.80;63.30;;;;;;5026894;28;20048;-66
2023/04/04 04:29:39;;;;;;;4.20;1.25;;;3.70;63.30;;;;;;5036010;28;20105;-66
2023/04/04 04:32:05;;;;;;;1.67;1.00;;;3.70;63.40;;;;;;5034605;28;20030;-70
2023/04/04 04:34:31;;;;;;;0.95;0.88;;;3.70;63.40;;;;;;5021646;28;20092;-70
2023/04/04 04:36:58;;;;;;;1.30;0.80;;;3.70;63.40;;;;;;5023860;28;20516;-70
2023/04/04 04:39:23;;;;;;;0.70;0.60;;;3.70;63.30;;;;;;5048730;28;20040;-66
2023/04/04 04:41:49;;;;;;;2.83;1.27;;;3.70;63.20;;;;;;5040761;28;20482;-66
2023/04/04 04:44:15;;;;;;;1.65;1.17;;;3.60;63.20;;;;;;5041687;28;20033;-65
2023/04/04 04:46:40;;;;;;;2.70;1.02;;;3.60;63.20;;;;;;5032929;28;20036;-66
2023/04/04 04:49:06;;;;;;;1.00;0.75;;;3.60;63.40;;;;;;5012754;28;20060;-66
2023/04/04 04:51:32;;;;;;;0.45;0.45;;;3.60;63.50;;;;;;5037505;28;20029;-66
2023/04/04 04:53:57;;;;;;;2.97;0.90;;;3.60;63.50;;;;;;5044907;28;20052;-69
2023/04/04 04:56:23;;;;;;;0.70;0.70;;;3.60;63.50;;;;;;5034860;28;20035;-69
2023/04/04 04:58:49;;;;;;;0.88;0.73;;;3.60;63.60;;;;;;5034907;28;20030;-69
2023/04/04 05:01:15;;;;;;;2.95;0.77;;;3.50;63.70;;;;;;4998281;28;20099;-69
2023/04/04 05:03:41;;;;;;;2.70;1.38;;;3.50;63.70;;;;;;5025527;28;20021;-69
2023/04/04 05:06:06;;;;;;;3.05;1.05;;;3.50;63.70;;;;;;5017869;28;20025;-70
2023/04/04 05:08:32;;;;;;;1.02;0.90;;;3.50;63.80;;;;;;5028397;28;20041;-70
2023/04/04 05:10:58;;;;;;;0.70;0.70;;;3.40;63.80;;;;;;5042566;28;20025;-69
2023/04/04 05:13:24;;;;;;;2.35;0.85;;;3.40;63.90;;;;;;5022563;28;20060;-69
2023/04/04 05:15:49;;;;;;;0.63;0.52;;;3.40;63.90;;;;;;5018088;28;20033;-66
2023/04/04 05:18:15;;;;;;;0.93;0.70;;;3.30;63.90;;;;;;5011575;28;20394;-66
2023/04/04 05:20:41;;;;;;;0.60;0.60;;;3.30;64.00;;;;;;5040199;28;20034;-69
2023/04/04 05:23:07;;;;;;;1.25;0.70;;;3.30;64.00;;;;;;5027856;28;20052;-69
2023/04/04 05:25:33;;;;;;;1.45;0.63;;;3.30;64.00;;;;;;5040383;28;20033;-69
2023/04/04 05:27:58;;;;;;;0.60;0.60;;;3.30;64.00;;;;;;5044363;28;20021;-69
2023/04/04 05:30:24;;;;;;;0.90;0.85;;;3.30;64.00;;;;;;5033139;28;20044;-66
2023/04/04 05:32:51;;;;;;;0.98;0.68;;;3.40;64.10;;;;;;5020725;28;20090;-67
2023/04/04 05:35:17;;;;;;;0.50;0.50;;;3.40;64.20;;;;;;5040402;28;20467;-66
2023/04/04 05:37:43;;;;;;;2.47;1.05;;;3.30;64.10;;;;;;5034306;28;20025;-69
2023/04/04 05:40:09;;;;;;;1.58;1.13;;;3.30;64.20;;;;;;5043834;28;20031;-68
2023/04/04 05:42:35;;;;;;;1.65;0.60;;;3.30;64.20;;;;;;5045677;28;20029;-65
2023/04/04 05:45:01;;;;;;;1.92;0.65;;;3.30;64.10;;;;;;5046953;28;20459;-70
2023/04/04 05:47:26;;;;;;;1.05;0.70;;;3.40;64.30;;;;;;5051390;28;20071;-69
2023/04/04 05:49:52;;;;;;;1.35;0.82;;;3.40;64.30;;;;;;5024083;28;20021;-69
2023/04/04 05:52:18;;;;;;;1.05;0.70;;;3.40;64.50;;;;;;5028180;28;20028;-69
2023/04/04 05:54:43;;;;;;;0.90;0.88;;;3.40;64.70;;;;;;5041256;28;20029;-66
2023/04/04 05:57:09;;;;;;;1.10;1.00;;;3.40;64.80;;;;;;5029236;28;20036;-66
2023/04/04 05:59:35;;;;;;;1.00;0.90;;;3.50;65.10;;;;;;5048397;28;20068;-66
2023/04/04 06:02:01;;;;;;;1.38;1.20;;;3.50;65.10;;;;;;5024755;28;20094;-66
2023/04/04 06:04:27;;;;;;;2.33;1.10;;;3.50;65.00;;;;;;5038462;28;20032;-65
2023/04/04 06:06:52;;;;;;;2.10;1.13;;;3.60;65.20;;;;;;5027779;28;20117;-69
2023/04/04 06:09:18;;;;;;;2.47;1.00;;;3.60;65.20;;;;;;5017182;28;20437;-68
2023/04/04 06:11:44;;;;;;;0.80;0.70;;;3.70;65.10;;;;;;5035210;28;20044;-69
2023/04/04 06:14:09;;;;;;;1.60;1.08;;;3.70;65.70;;;;;;5039491;28;20057;-69
2023/04/04 06:16:35;;;;;;;1.33;0.90;;;3.80;65.10;;;;;;5043209;28;20029;-69
2023/04/04 06:19:01;;;;;;;1.55;0.98;;;3.90;65.10;;;;;;5021731;28;20175;-69
2023/04/04 06:21:27;;;;;;;0.40;0.40;;;4.00;65.00;;;;;;5041386;28;20030;-66
2023/04/04 06:23:53;;;;;;;1.30;1.05;;;4.10;65.00;;;;;;5021003;28;20393;-69
2023/04/04 06:26:19;;;;;;;0.70;0.60;;;4.20;64.90;;;;;;5030532;28;20033;-70
2023/04/04 06:28:49;;;;;;;1.23;0.88;;;4.30;64.70;;;;;;5024857;28;20041;-72
2023/04/04 06:31:15;;;;;;;1.75;1.30;;;4.30;64.70;;;;;;5026150;28;20116;-70
2023/04/04 06:33:41;;;;;;;1.08;0.80;;;4.40;64.80;;;;;;5013326;28;20512;-67
2023/04/04 06:36:06;;;;;;;1.85;1.10;;;4.50;64.80;;;;;;5028922;28;20033;-64
2023/04/04 06:38:32;;;;;;;2.50;0.95;;;4.50;64.80;;;;;;5029567;28;20336;-68
2023/04/04 06:40:58;;;;;;;1.65;1.08;;;4.60;64.80;;;;;;5045193;28;20021;-65
2023/04/04 06:43:24;;;;;;;0.95;0.70;;;4.70;64.80;;;;;;5043998;28;20040;-65
2023/04/04 06:45:50;;;;;;;1.02;0.70;;;4.80;64.60;;;;;;5045788;28;20055;-69
2023/04/04 06:48:16;;;;;;;1.45;1.10;;;4.80;64.40;;;;;;5037052;28;20496;-72
2023/04/04 06:50:41;;;;;;;0.75;0.70;;;5.00;64.30;;;;;;5012713;28;20041;-65
2023/04/04 06:53:07;;;;;;;0.73;0.70;;;5.10;64.10;;;;;;5018271;28;20493;-64
2023/04/04 06:55:34;;;;;;;1.65;0.77;;;5.30;63.80;;;;;;5019965;28;20038;-71
2023/04/04 06:58:00;;;;;;;1.33;0.93;;;5.30;63.40;;;;;;5036307;28;20100;-68
2023/04/04 07:00:25;;;;;;;3.85;1.23;;;5.50;63.20;;;;;;5047468;28;20120;-70
2023/04/04 07:03:01;;;;;;;1.08;0.63;;;5.60;62.90;;;;;;5039123;28;20032;-72
2023/04/04 07:05:27;;;;;;;0.95;0.60;;;5.80;62.60;;;;;;5034101;28;20086;-65
2023/04/04 07:07:55;;;;;;;1.25;1.10;;;5.80;62.40;;;;;;5023109;28;20028;-64
2023/04/04 07:10:21;;;;;;;4.05;0.77;;;5.90;62.10;;;;;;5040092;28;20128;-65
2023/04/04 07:12:47;;;;;;;0.85;0.73;;;5.90;61.90;;;;;;5040439;28;20488;-65
2023/04/04 07:15:12;;;;;;;1.20;0.90;;;6.00;61.70;;;;;;5043586;28;20078;-66
2023/04/04 07:17:39;;;;;;;2.15;0.68;;;6.10;61.60;;;;;;5043512;28;20037;-71
2023/04/04 07:20:06;;;;;;;0.90;0.70;;;6.20;61.40;;;;;;5037359;28;20549;-69
2023/04/04 07:22:36;;;;;;;0.80;0.68;;;6.20;61.10;;;;;;5019320;28;20099;-70
2023/04/04 07:25:02;;;;;;;2.80;1.30;;;6.30;61.00;;;;;;5036588;28;20039;-65
2023/04/04 07:27:27;;;;;;;1.40;0.63;;;6.40;60.80;;;;;;5036730;28;20025;-66
2023/04/04 07:29:53;;;;;;;0.75;0.75;;;6.50;60.60;;;;;;5043417;28;20056;-69
2023/04/04 07:32:19;;;;;;;1.17;0.90;;;6.60;60.40;;;;;;5040113;28;20497;-69
2023/04/04 07:34:46;;;;;;;2.22;1.02;;;6.70;60.20;;;;;;5035445;28;20429;-69
2023/04/04 07:37:11;;;;;;;0.70;0.70;;;6.80;60.20;;;;;;5043057;28;20028;-68
2023/04/04 07:39:37;;;;;;;0.75;0.75;;;6.80;59.90;;;;;;5039409;28;20477;-70
2023/04/04 07:42:03;;;;;;;1.75;0.90;;;6.90;59.80;;;;;;5047807;28;20341;-70
2023/04/04 07:44:28;;;;;;;2.40;1.00;;;6.90;59.60;;;;;;5021197;28;20127;-69
2023/04/04 07:46:54;;;;;;;1.48;0.77;;;7.00;59.40;;;;;;5041572;28;20037;-68
2023/04/04 07:49:20;;;;;;;1.25;0.88;;;7.10;59.30;;;;;;5038440;28;20037;-69
2023/04/04 07:51:46;;;;;;;2.60;0.80;;;7.10;59.10;;;;;;5025241;28;20029;-66
2023/04/04 07:54:11;;;;;;;0.40;0.40;;;7.20;58.90;;;;;;5040414;28;20385;-66
2023/04/04 07:56:37;;;;;;;1.15;0.68;;;7.20;58.80;;;;;;5039388;28;20111;-67
2023/04/04 07:59:04;;;;;;;3.95;1.00;;;7.30;58.60;;;;;;5045389;28;20377;-66
2023/04/04 08:01:31;;;;;;;1.45;0.70;;;7.40;58.40;;;;;;5012573;28;20124;-65
2023/04/04 08:03:56;;;;;;;1.83;1.02;;;7.50;58.20;;;;;;5027461;28;20025;-68
2023/04/04 08:06:22;;;;;;;6.68;1.15;;;7.60;57.80;;;;;;5043907;28;20079;-69
2023/04/04 08:08:49;;;;;;;3.08;1.40;;;7.70;57.60;;;;;;5040499;28;20037;-69
2023/04/04 08:11:15;;;;;;;1.95;0.93;;;7.70;57.40;;;;;;5043362;28;20518;-69
2023/04/04 08:13:41;;;;;;;3.42;0.77;;;7.80;57.40;;;;;;5005292;28;20045;-68
2023/04/04 08:16:07;;;;;;;1.05;0.80;;;7.80;57.10;;;;;;5027177;28;20192;-69
2023/04/04 08:18:33;;;;;;;1.90;0.90;;;7.90;56.80;;;;;;5026551;28;20126;-69
2023/04/04 08:20:58;;;;;;;0.90;0.70;;;8.00;56.70;;;;;;5043104;28;20037;-69
2023/04/04 08:23:24;;;;;;;2.05;1.13;;;8.00;56.70;;;;;;5042574;28;20403;-64
2023/04/04 08:25:50;;;;;;;1.15;0.80;;;8.10;56.50;;;;;;5024041;28;20041;-72
2023/04/04 08:28:16;;;;;;;0.77;0.40;;;8.10;56.30;;;;;;5041071;28;20029;-73
2023/04/04 08:30:42;;;;;;;0.80;0.73;;;8.20;56.30;;;;;;5012319;28;20437;-73
2023/04/04 08:33:08;;;;;;;0.90;0.60;;;8.30;56.00;;;;;;5005721;28;20112;-72
2023/04/04 08:35:33;;;;;;;1.45;0.82;;;8.40;55.70;;;;;;5025881;28;20057;-69
2023/04/04 08:38:01;;;;;;;3.50;0.65;;;8.50;55.60;;;;;;5025130;28;20079;-65
2023/04/04 08:40:29;;;;;;;1.13;0.70;;;8.60;55.30;;;;;;5042305;28;20029;-66
2023/04/04 08:42:56;;;;;;;0.80;0.80;;;8.70;54.90;;;;;;5023993;28;20099;-66
2023/04/04 08:45:24;;;;;;;0.55;0.55;;;8.70;54.90;;;;;;5039442;28;20083;-69
2023/04/04 08:47:52;;;;;;;2.38;0.93;;;8.80;54.50;;;;;;5042239;28;20021;-69
2023/04/04 08:50:18;;;;;;;1.58;0.95;;;8.80;54.40;;;;;;5029189;28;20099;-69
2023/04/04 08:52:45;;;;;;;2.17;1.25;;;8.90;54.30;;;;;;5038548;28;20052;-68
2023/04/04 08:55:11;;;;;;;0.63;0.57;;;9.00;54.00;;;;;;5012363;28;20108;-65
2023/04/04 08:57:37;;;;;;;0.82;0.70;;;9.10;53.80;;;;;;5040578;28;20021;-69
2023/04/04 09:00:05;;;;;;;1.13;0.50;;;9.20;53.60;;;;;;5038832;28;20050;-66
2023/04/04 09:02:34;;;;;;;0.55;0.55;;;9.30;53.10;;;;;;5045344;28;20036;-69
2023/04/04 09:05:01;;;;;;;1.17;0.75;;;9.40;53.20;;;;;;5043400;28;20028;-65
2023/04/04 09:07:28;;;;;;;0.80;0.65;;;9.40;52.60;;;;;;5026616;28;20028;-65
2023/04/04 09:09:54;;;;;;;1.30;0.73;;;9.50;52.40;;;;;;5047589;28;20110;-69
2023/04/04 09:12:21;;;;;;;0.90;0.75;;;9.50;52.20;;;;;;5023497;28;20036;-69
2023/04/04 09:14:50;;;;;;;1.42;0.80;;;9.60;51.70;;;;;;5019582;28;20053;-65
2023/04/04 09:17:17;;;;;;;2.08;1.55;;;9.60;51.40;;;;;;5038654;28;20324;-66
2023/04/04 09:19:43;;;;;;;2.15;1.13;;;9.70;51.30;;;;;;5040451;28;20057;-69
2023/04/04 09:22:08;;;;;;;0.93;0.50;;;9.80;51.20;;;;;;5044973;28;20133;-66
2023/04/04 09:24:52;;;;;;;0.85;0.80;;;9.90;51.10;;;;;;5042754;28;20022;-69
2023/04/04 09:27:19;;;;;;;1.40;0.80;;;10.00;51.00;;;;;;5045931;28;20040;-69
2023/04/04 09:29:44;;;;;;;2.33;1.02;;;10.10;50.60;;;;;;5037051;28;20492;-69
2023/04/04 09:32:15;;;;;;;2.08;0.65;;;10.20;50.60;;;;;;5039107;28;20111;-69
2023/04/04 09:34:42;;;;;;;0.60;0.40;;;10.30;50.40;;;;;;5027736;28;20078;-69
2023/04/04 09:37:09;;;;;;;1.65;0.50;;;10.40;50.40;;;;;;5029163;28;20415;-69
2023/04/04 09:39:38;;;;;;;1.85;0.80;;;10.50;50.00;;;;;;5026424;28;20033;-69
2023/04/04 09:42:06;;;;;;;3.40;0.70;;;10.60;49.90;;;;;;5032835;28;20036;-65
2023/04/04 09:44:33;;;;;;;1.25;0.80;;;10.70;49.30;;;;;;5023906;28;20064;-65
2023/04/04 09:47:27;;;;;;;2.13;1.13;;;10.80;49.30;;;;;;5041784;28;20026;-69
2023/04/04 09:49:59;;;;;;;2.28;0.90;;;11.00;49.00;;;;;;5046120;28;20064;-69
2023/04/04 09:52:25;;;;;;;0.60;0.60;;;11.10;48.80;;;;;;5046907;28;20117;-69
2023/04/04 09:54:59;;;;;;;1.05;0.60;;;11.10;48.50;;;;;;5042503;28;20036;-69
2023/04/04 09:57:28;;;;;;;3.17;1.25;;;11.20;48.70;;;;;;5034442;28;20030;-69
2023/04/04 10:00:00;;;;;;;0.80;0.50;;;11.20;48.20;;;;;;5038323;28;20030;-69
2023/04/04 10:02:29;;;;;;;0.95;0.65;;;11.20;48.10;;;;;;5035050;28;20371;-69
2023/04/04 10:04:56;;;;;;;1.35;0.80;;;11.30;48.20;;;;;;5038735;28;20475;-69
2023/04/04 10:07:25;;;;;;;1.45;0.73;;;11.30;47.80;;;;;;5043376;28;20116;-65
2023/04/04 10:09:51;;;;;;;0.50;0.50;;;11.40;47.20;;;;;;5039521;28;20051;-69
2023/04/04 10:12:22;;;;;;;0.80;0.65;;;11.40;47.20;;;;;;5014472;28;20080;-68
2023/04/04 10:14:54;;;;;;;0.63;0.50;;;11.40;47.00;;;;;;5035316;28;20041;-64
2023/04/04 10:17:21;;;;;;;0.63;0.63;;;11.50;47.00;;;;;;5042272;28;20028;-66
2023/04/04 10:19:47;;;;;;;1.05;0.80;;;11.70;46.80;;;;;;5025730;28;20045;-65
2023/04/04 10:22:15;;;;;;;0.55;0.55;;;11.70;46.80;;;;;;5036785;28;20473;-66
2023/04/04 10:24:40;;;;;;;1.33;0.60;;;11.90;47.00;;;;;;5043154;28;20029;-65
2023/04/04 10:27:06;;;;;;;2.50;1.00;;;12.10;46.80;;;;;;5029122;28;20033;-66
2023/04/04 10:29:32;;;;;;;4.28;0.57;;;12.30;46.50;;;;;;5043397;28;20079;-65
2023/04/04 10:32:07;;;;;;;0.60;0.43;;;12.40;46.30;;;;;;5049554;28;20040;-65
2023/04/04 10:34:52;;;;;;;0.82;0.80;;;12.30;46.10;;;;;;5044135;28;20542;-69
2023/04/04 10:37:25;;;;;;;0.73;0.70;;;12.40;46.40;;;;;;5041923;28;20485;-69
2023/04/04 10:40:06;;;;;;;2.58;1.00;;;12.40;46.10;;;;;;5027149;28;20025;-69
2023/04/04 10:42:39;;;;;;;1.20;0.98;;;12.50;46.10;;;;;;5044895;28;20036;-66
2023/04/04 10:45:08;;;;;;;2.05;0.70;;;12.60;46.10;;;;;;5024450;28;20013;-68
2023/04/04 10:47:34;;;;;;;0.95;0.95;;;12.70;45.80;;;;;;5044132;28;20036;-68
2023/04/04 10:50:01;;;;;;;1.08;0.50;;;12.70;45.40;;;;;;5045740;28;20155;-68
2023/04/04 10:52:30;;;;;;;0.80;0.80;;;12.80;45.50;;;;;;5046520;28;20040;-69
2023/04/04 10:55:03;;;;;;;0.85;0.85;;;12.80;45.30;;;;;;5048325;28;20033;-69
2023/04/04 10:57:29;;;;;;;2.67;1.10;;;12.90;45.00;;;;;;5053517;28;20025;-69
2023/04/04 11:00:07;;;;;;;1.00;0.68;;;13.00;45.10;;;;;;5052433;28;20024;-69
2023/04/04 11:02:51;;;;;;;1.23;0.85;;;13.10;45.00;;;;;;5049034;28;20083;-68
2023/04/04 11:05:21;;;;;;;0.55;0.50;;;13.20;44.60;;;;;;5045176;28;20029;-68
2023/04/04 11:07:59;;;;;;;1.30;1.17;;;13.30;44.80;;;;;;5045821;28;20017;-70
2023/04/04 11:10:35;;;;;;;1.05;0.88;;;13.40;44.60;;;;;;5048923;28;20071;-65
2023/04/04 11:13:08;;;;;;;3.83;0.95;;;13.40;44.00;;;;;;5040391;28;20021;-65
2023/04/04 11:15:57;;;;;;;1.48;0.90;;;13.40;44.70;;;;;;5048939;28;20076;-65
2023/04/04 11:18:38;;;;;;;1.08;0.93;;;13.50;44.20;;;;;;5018926;28;20036;-65
2023/04/04 11:21:06;;;;;;;1.10;0.70;;;13.60;43.50;;;;;;5044505;28;20231;-69
2023/04/04 11:23:50;;;;;;;1.25;0.70;;;13.50;43.70;;;;;;5023774;28;20079;-69
2023/04/04 11:26:25;;;;;;;4.85;1.48;;;13.60;44.20;;;;;;5044976;28;20028;-65
2023/04/04 11:28:51;;;;;;;1.35;0.90;;;13.80;43.80;;;;;;5043647;28;20075;-65
2023/04/04 11:31:17;;;;;;;1.90;0.90;;;13.90;43.30;;;;;;5023689;28;20052;-69
2023/04/04 11:34:09;;;;;;;0.73;0.50;;;14.00;43.10;;;;;;5038329;28;20021;-69
2023/04/04 11:36:35;;;;;;;1.25;0.73;;;14.10;42.80;;;;;;5042328;28;20070;-68
2023/04/04 11:39:27;;;;;;;2.20;1.00;;;14.10;42.80;;;;;;5053163;28;20111;-68
2023/04/04 11:41:59;;;;;;;3.83;1.00;;;14.20;42.90;;;;;;5015186;28;20170;-66
2023/04/04 11:44:29;;;;;;;1.17;0.80;;;14.30;42.90;;;;;;5024189;28;20103;-64
2023/04/04 11:47:10;;;;;;;1.00;0.68;;;14.50;42.60;;;;;;5036310;28;20044;-68
2023/04/04 11:49:41;;;;;;;1.00;0.50;;;14.60;42.30;;;;;;5018817;28;20048;-68
2023/04/04 11:52:17;;;;;;;0.85;0.80;;;14.80;41.80;;;;;;5025481;28;20033;-68
2023/04/04 11:54:45;;;;;;;1.63;1.00;;;14.90;41.60;;;;;;5045518;28;20025;-69
2023/04/04 11:57:12;;;;;;;5.70;1.00;;;15.10;41.10;;;;;;5046715;28;20025;-68
2023/04/04 11:59:48;;;;;;;0.30;0.25;;;15.20;40.60;;;;;;5039710;28;20021;-69
2023/04/04 12:02:26;;;;;;;0.60;0.60;;;15.20;40.80;;;;;;5036385;28;20022;-68
2023/04/04 12:04:52;;;;;;;0.98;0.75;;;15.30;41.00;;;;;;5030702;28;20044;-68
2023/04/04 12:07:18;;;;;;;1.00;0.88;;;15.50;41.10;;;;;;5043107;28;20033;-65
2023/04/04 12:09:44;;;;;;;1.02;0.80;;;15.70;40.20;;;;;;5044091;28;20045;-65
2023/04/04 12:12:15;;;;;;;0.85;0.60;;;15.80;40.00;;;;;;5048208;28;20029;-65
2023/04/04 12:14:41;;;;;;;0.52;0.45;;;15.90;39.80;;;;;;5027627;28;20362;-68
2023/04/04 12:17:07;;;;;;;1.02;0.90;;;16.10;39.90;;;;;;5021121;28;20502;-68
2023/04/04 12:19:37;;;;;;;2.63;1.20;;;16.20;39.50;;;;;;5043158;28;20112;-68
2023/04/04 12:22:03;;;;;;;0.75;0.40;;;16.30;39.50;;;;;;5048341;28;20491;-66
2023/04/04 12:24:29;;;;;;;0.50;0.50;;;16.40;39.00;;;;;;5037650;28;20041;-65
2023/04/04 12:26:57;;;;;;;0.73;0.50;;;16.40;39.00;;;;;;5025967;28;20152;-69
2023/04/04 12:29:25;;;;;;;0.77;0.40;;;16.40;39.00;;;;;;5047590;28;20084;-67
2023/04/04 12:31:52;;;;;;;0.95;0.50;;;16.50;38.90;;;;;;5041826;28;20036;-68
2023/04/04 12:34:23;;;;;;;1.80;0.68;;;16.40;38.20;;;;;;5018999;28;20036;-69
2023/04/04 12:36:53;;;;;;;0.63;0.63;;;16.40;38.40;;;;;;5016006;28;20029;-67
2023/04/04 12:39:21;;;;;;;3.55;1.48;;;16.50;38.00;;;;;;5035946;28;20034;-68
2023/04/04 12:41:52;;;;;;;3.45;0.73;;;16.30;36.70;;;;;;5045851;28;20028;-68
2023/04/04 12:44:30;;;;;;;0.98;0.70;;;16.10;37.60;;;;;;5047631;28;20490;-65
2023/04/04 12:47:04;;;;;;;0.60;0.60;;;16.20;38.10;;;;;;5015910;28;20025;-68
2023/04/04 12:49:33;;;;;;;1.40;0.65;;;16.50;38.10;;;;;;5041948;28;20380;-69
2023/04/04 12:52:04;;;;;;;0.80;0.57;;;16.70;37.90;;;;;;5027699;28;20116;-64
2023/04/04 12:54:32;;;;;;;0.80;0.60;;;17.00;37.50;;;;;;5044520;28;20353;-65
2023/04/04 12:57:02;;;;;;;0.75;0.65;;;17.20;37.30;;;;;;5042431;28;20137;-65
2023/04/04 12:59:30;;;;;;;2.85;0.93;;;17.40;37.10;;;;;;5044739;28;20024;-65